createdAt,value
2017-07-28T00:00:10.230Z,23.05
2017-07-28T00:01:11.023Z,23.05
2017-07-28T00:02:11.659Z,22.98
2017-07-28T00:03:12.297Z,23.06
2017-07-28T00:04:12.933Z,23.08
2017-07-28T00:05:13.568Z,23.02
2017-07-28T00:06:14.205Z,23.02
2017-07-28T00:07:14.839Z,22.98
2017-07-28T00:08:15.476Z,23.05
2017-07-28T00:09:16.263Z,23.02
2017-07-28T00:10:16.902Z,23.02
2017-07-28T00:11:17.536Z,23.02
2017-07-28T00:12:18.181Z,22.99
2017-07-28T00:13:18.817Z,22.98
2017-07-28T00:14:19.457Z,23.05
2017-07-28T00:15:20.099Z,23.00
2017-07-28T00:16:20.729Z,22.98
2017-07-28T00:17:21.515Z,23.00
2017-07-28T00:18:22.154Z,23.02
2017-07-28T00:19:22.793Z,23.05
2017-07-28T00:20:23.377Z,23.05
2017-07-28T00:21:24.012Z,22.96
2017-07-28T00:22:24.648Z,22.98
2017-07-28T00:23:25.284Z,22.94
2017-07-28T00:24:25.919Z,23.00
2017-07-28T00:25:26.707Z,22.94
2017-07-28T00:26:27.341Z,23.00
2017-07-28T00:27:27.978Z,22.93
2017-07-28T00:28:28.614Z,22.96
2017-07-28T00:29:29.253Z,22.96
2017-07-28T00:30:29.892Z,22.91
2017-07-28T00:31:30.525Z,22.96
2017-07-28T00:32:31.167Z,22.90
2017-07-28T00:33:31.805Z,22.96
2017-07-28T00:34:32.636Z,22.93
2017-07-28T00:35:33.282Z,22.98
2017-07-28T00:36:33.918Z,22.96
2017-07-28T00:37:34.558Z,22.99
2017-07-28T00:38:35.185Z,22.94
2017-07-28T00:39:35.829Z,22.96
2017-07-28T00:40:36.465Z,22.91
2017-07-28T00:41:37.103Z,22.98
2017-07-28T00:42:37.936Z,22.85
2017-07-28T00:43:38.572Z,22.91
2017-07-28T00:44:39.214Z,22.94
2017-07-28T00:45:39.847Z,22.94
2017-07-28T00:46:40.483Z,22.85
2017-07-28T00:47:41.120Z,22.84
2017-07-28T00:48:41.757Z,22.91
2017-07-28T00:49:42.391Z,22.94
2017-07-28T00:50:43.227Z,22.90
2017-07-28T00:51:43.862Z,22.94
2017-07-28T00:52:44.497Z,22.88
2017-07-28T00:53:45.137Z,22.94
2017-07-28T00:54:45.826Z,22.85
2017-07-28T00:55:46.461Z,22.93
2017-07-28T00:56:47.095Z,22.90
2017-07-28T00:57:47.734Z,22.87
2017-07-28T00:58:48.624Z,22.90
2017-07-28T00:59:49.265Z,22.87
2017-07-28T01:00:49.897Z,22.85
2017-07-28T01:01:50.543Z,22.85
2017-07-28T01:02:51.174Z,22.90
2017-07-28T01:03:51.809Z,22.87
2017-07-28T01:04:52.451Z,22.85
2017-07-28T01:05:53.087Z,22.85
2017-07-28T01:06:53.726Z,22.88
2017-07-28T01:07:54.508Z,22.87
2017-07-28T01:08:55.147Z,22.87
2017-07-28T01:09:55.783Z,22.94
2017-07-28T01:10:56.425Z,22.85
2017-07-28T01:11:57.058Z,22.85
2017-07-28T01:12:57.692Z,22.88
2017-07-28T01:13:58.330Z,22.80
2017-07-28T01:14:58.971Z,22.85
2017-07-28T01:15:59.904Z,22.88
2017-07-28T01:17:00.544Z,22.80
2017-07-28T01:18:01.190Z,22.90
2017-07-28T01:19:01.819Z,22.83
2017-07-28T01:20:02.511Z,22.85
2017-07-28T01:21:03.142Z,22.88
2017-07-28T01:22:03.778Z,22.88
2017-07-28T01:23:04.420Z,22.88
2017-07-28T01:24:05.258Z,22.84
2017-07-28T01:25:05.890Z,22.87
2017-07-28T01:26:06.533Z,22.88
2017-07-28T01:27:07.171Z,22.88
2017-07-28T01:28:07.809Z,22.90
2017-07-28T01:29:08.448Z,22.88
2017-07-28T01:30:09.091Z,22.85
2017-07-28T01:31:09.778Z,22.85
2017-07-28T01:32:10.612Z,22.90
2017-07-28T01:33:11.248Z,22.84
2017-07-28T01:34:11.885Z,22.85
2017-07-28T01:35:12.520Z,22.84
2017-07-28T01:36:13.162Z,22.81
2017-07-28T01:37:13.794Z,22.88
2017-07-28T01:38:14.437Z,22.87
2017-07-28T01:39:15.071Z,22.85
2017-07-28T01:40:15.905Z,22.94
2017-07-28T01:41:20.998Z,22.90
2017-07-28T01:42:21.638Z,22.94
2017-07-28T01:43:22.276Z,22.87
2017-07-28T01:44:22.914Z,22.88
2017-07-28T01:45:23.547Z,22.93
2017-07-28T01:46:24.187Z,22.90
2017-07-28T01:47:24.825Z,22.90
2017-07-28T01:48:25.457Z,22.90
2017-07-28T01:49:26.292Z,22.90
2017-07-28T01:50:26.928Z,22.90
2017-07-28T01:51:27.562Z,22.91
2017-07-28T01:52:28.201Z,22.94
2017-07-28T01:53:28.835Z,22.87
2017-07-28T01:54:29.470Z,22.94
2017-07-28T01:55:30.106Z,22.93
2017-07-28T01:56:30.744Z,22.96
2017-07-28T01:57:31.528Z,22.83
2017-07-28T01:58:32.164Z,22.98
2017-07-28T01:59:32.805Z,22.87
2017-07-28T02:00:33.441Z,22.93
2017-07-28T02:01:34.087Z,22.85
2017-07-28T02:02:34.719Z,22.94
2017-07-28T02:03:35.358Z,22.87
2017-07-28T02:04:36.007Z,22.88
2017-07-28T02:05:36.797Z,22.96
2017-07-28T02:06:37.432Z,22.91
2017-07-28T02:07:38.066Z,22.93
2017-07-28T02:08:38.707Z,22.88
2017-07-28T02:09:39.346Z,22.94
2017-07-28T02:10:39.983Z,22.96
2017-07-28T02:11:40.617Z,22.96
2017-07-28T02:12:41.257Z,22.93
2017-07-28T02:13:42.044Z,22.83
2017-07-28T02:14:42.679Z,22.98
2017-07-28T02:15:43.317Z,22.94
2017-07-28T02:16:43.951Z,22.87
2017-07-28T02:17:44.587Z,22.83
2017-07-28T02:18:45.224Z,22.98
2017-07-28T02:19:45.859Z,22.91
2017-07-28T02:20:46.496Z,22.93
2017-07-28T02:21:47.131Z,22.91
2017-07-28T02:22:47.924Z,22.93
2017-07-28T02:23:48.560Z,22.96
2017-07-28T02:24:49.200Z,22.91
2017-07-28T02:25:49.838Z,22.96
2017-07-28T02:26:50.469Z,22.96
2017-07-28T02:27:51.110Z,22.96
2017-07-28T02:28:51.744Z,22.96
2017-07-28T02:29:52.379Z,22.96
2017-07-28T02:30:53.166Z,22.88
2017-07-28T02:31:53.802Z,22.96
2017-07-28T02:32:54.437Z,22.91
2017-07-28T02:33:55.075Z,22.91
2017-07-28T02:34:55.710Z,22.96
2017-07-28T02:35:56.345Z,22.94
2017-07-28T02:36:56.987Z,22.90
2017-07-28T02:37:57.623Z,22.85
2017-07-28T02:38:58.406Z,22.83
2017-07-28T02:39:58.994Z,22.87
2017-07-28T02:40:59.628Z,22.96
2017-07-28T02:42:00.264Z,22.99
2017-07-28T02:43:00.906Z,22.96
2017-07-28T02:44:01.537Z,22.96
2017-07-28T02:45:02.175Z,22.99
2017-07-28T02:46:02.818Z,22.99
2017-07-28T02:47:03.713Z,22.96
2017-07-28T02:48:04.357Z,22.98
2017-07-28T02:49:04.982Z,22.85
2017-07-28T02:50:05.624Z,22.93
2017-07-28T02:51:06.263Z,22.84
2017-07-28T02:52:06.893Z,22.85
2017-07-28T02:53:07.530Z,22.91
2017-07-28T02:54:08.167Z,22.99
2017-07-28T02:55:08.954Z,22.91
2017-07-28T02:56:09.597Z,22.88
2017-07-28T02:57:10.230Z,22.87
2017-07-28T02:58:10.865Z,22.98
2017-07-28T02:59:11.499Z,22.85
2017-07-28T03:00:12.136Z,22.91
2017-07-28T03:01:12.773Z,22.94
2017-07-28T03:02:13.414Z,22.87
2017-07-28T03:03:14.046Z,22.90
2017-07-28T03:04:14.889Z,22.85
2017-07-28T03:05:15.526Z,22.91
2017-07-28T03:06:16.165Z,22.87
2017-07-28T03:07:16.800Z,22.85
2017-07-28T03:08:17.440Z,22.98
2017-07-28T03:09:18.079Z,22.91
2017-07-28T03:10:18.717Z,22.98
2017-07-28T03:11:19.350Z,22.91
2017-07-28T03:12:20.190Z,22.91
2017-07-28T03:13:20.823Z,22.90
2017-07-28T03:14:21.464Z,22.91
2017-07-28T03:15:22.105Z,22.91
2017-07-28T03:16:22.795Z,22.93
2017-07-28T03:17:23.433Z,22.93
2017-07-28T03:18:24.065Z,22.83
2017-07-28T03:19:24.702Z,22.94
2017-07-28T03:20:25.487Z,22.93
2017-07-28T03:21:26.130Z,22.94
2017-07-28T03:22:26.768Z,22.90
2017-07-28T03:23:27.406Z,22.94
2017-07-28T03:24:28.040Z,22.93
2017-07-28T03:25:28.678Z,22.90
2017-07-28T03:26:29.316Z,22.91
2017-07-28T03:27:29.948Z,22.93
2017-07-28T03:28:30.835Z,22.90
2017-07-28T03:29:31.475Z,22.90
2017-07-28T03:30:32.108Z,22.85
2017-07-28T03:31:32.748Z,22.85
2017-07-28T03:32:33.381Z,22.88
2017-07-28T03:33:34.016Z,22.88
2017-07-28T03:34:34.656Z,22.96
2017-07-28T03:35:35.293Z,22.83
2017-07-28T03:36:35.931Z,22.87
2017-07-28T03:37:36.723Z,22.87
2017-07-28T03:38:37.351Z,22.94
2017-07-28T03:39:37.990Z,22.83
2017-07-28T03:40:38.627Z,22.98
2017-07-28T03:41:39.267Z,22.90
2017-07-28T03:42:39.904Z,22.90
2017-07-28T03:43:40.542Z,22.93
2017-07-28T03:44:41.175Z,22.91
2017-07-28T03:45:41.967Z,22.94
2017-07-28T03:46:42.660Z,22.90
2017-07-28T03:47:43.300Z,22.83
2017-07-28T03:48:43.949Z,22.84
2017-07-28T03:49:44.581Z,22.94
2017-07-28T03:50:45.212Z,22.93
2017-07-28T03:51:45.855Z,22.93
2017-07-28T03:52:46.489Z,22.91
2017-07-28T03:53:47.281Z,22.94
2017-07-28T03:54:47.919Z,22.88
2017-07-28T03:55:48.559Z,22.91
2017-07-28T03:56:49.198Z,22.83
2017-07-28T03:57:49.829Z,22.87
2017-07-28T03:58:50.472Z,22.91
2017-07-28T03:59:51.104Z,22.93
2017-07-28T04:00:51.746Z,22.88
2017-07-28T04:01:52.540Z,22.88
2017-07-28T04:02:53.177Z,22.83
2017-07-28T04:03:53.807Z,22.88
2017-07-28T04:04:54.443Z,22.85
2017-07-28T04:05:55.089Z,22.85
2017-07-28T04:06:55.728Z,22.88
2017-07-28T04:07:56.367Z,22.94
2017-07-28T04:08:57.004Z,22.94
2017-07-28T04:09:57.786Z,22.87
2017-07-28T04:10:58.426Z,22.90
2017-07-28T04:11:59.059Z,22.88
2017-07-28T04:12:59.698Z,22.98
2017-07-28T04:14:00.337Z,22.93
2017-07-28T04:15:00.968Z,22.88
2017-07-28T04:16:01.604Z,22.88
2017-07-28T04:17:02.241Z,22.87
2017-07-28T04:18:02.882Z,22.88
2017-07-28T04:19:03.717Z,22.90
2017-07-28T04:20:04.352Z,22.93
2017-07-28T04:21:04.986Z,22.88
2017-07-28T04:22:05.625Z,22.88
2017-07-28T04:23:06.321Z,22.87
2017-07-28T04:24:06.958Z,22.87
2017-07-28T04:25:07.590Z,22.91
2017-07-28T04:26:08.231Z,22.87
2017-07-28T04:27:09.018Z,22.87
2017-07-28T04:28:09.648Z,22.87
2017-07-28T04:29:10.283Z,22.87
2017-07-28T04:30:10.921Z,22.88
2017-07-28T04:31:11.556Z,22.87
2017-07-28T04:32:12.192Z,22.85
2017-07-28T04:33:12.830Z,22.84
2017-07-28T04:34:13.470Z,22.94
2017-07-28T04:35:14.304Z,22.85
2017-07-28T04:36:14.947Z,22.88
2017-07-28T04:37:15.578Z,22.90
2017-07-28T04:38:16.235Z,22.87
2017-07-28T04:39:16.856Z,22.87
2017-07-28T04:40:17.489Z,22.84
2017-07-28T04:41:18.135Z,22.87
2017-07-28T04:42:18.772Z,22.88
2017-07-28T04:43:19.609Z,22.87
2017-07-28T04:44:20.248Z,22.84
2017-07-28T04:45:20.887Z,22.85
2017-07-28T04:46:21.529Z,22.84
2017-07-28T04:47:22.159Z,22.88
2017-07-28T04:48:22.805Z,22.84
2017-07-28T04:49:23.445Z,22.84
2017-07-28T04:50:24.069Z,22.83
2017-07-28T04:51:24.711Z,22.81
2017-07-28T04:52:25.501Z,22.81
2017-07-28T04:53:26.140Z,22.80
2017-07-28T04:54:26.772Z,22.83
2017-07-28T04:55:27.410Z,22.83
2017-07-28T04:56:28.045Z,22.80
2017-07-28T04:57:28.683Z,22.78
2017-07-28T04:58:29.324Z,22.80
2017-07-28T04:59:29.957Z,22.76
2017-07-28T05:00:30.792Z,22.75
2017-07-28T05:01:31.427Z,22.73
2017-07-28T05:02:32.063Z,22.73
2017-07-28T05:03:32.703Z,22.72
2017-07-28T05:04:33.341Z,22.73
2017-07-28T05:05:33.985Z,22.75
2017-07-28T05:06:34.620Z,22.75
2017-07-28T05:07:35.253Z,22.78
2017-07-28T05:08:36.090Z,22.72
2017-07-28T05:09:36.725Z,22.69
2017-07-28T05:10:37.366Z,22.76
2017-07-28T05:11:44.755Z,22.76
2017-07-28T05:12:45.392Z,22.72
2017-07-28T05:13:46.026Z,22.80
2017-07-28T05:14:46.667Z,22.76
2017-07-28T05:15:47.307Z,22.76
2017-07-28T05:16:48.142Z,22.75
2017-07-28T05:17:48.784Z,22.69
2017-07-28T05:18:49.422Z,22.72
2017-07-28T05:19:50.058Z,22.76
2017-07-28T05:20:50.699Z,22.73
2017-07-28T05:21:51.333Z,22.78
2017-07-28T05:22:51.968Z,22.75
2017-07-28T05:23:52.610Z,22.72
2017-07-28T05:24:53.443Z,22.72
2017-07-28T05:25:54.086Z,22.70
2017-07-28T05:26:54.720Z,22.72
2017-07-28T05:27:55.361Z,22.70
2017-07-28T05:28:55.999Z,22.76
2017-07-28T05:29:56.630Z,22.70
2017-07-28T05:30:57.274Z,22.70
2017-07-28T05:31:57.910Z,22.70
2017-07-28T05:32:58.547Z,22.70
2017-07-28T05:33:59.430Z,22.75
2017-07-28T05:35:00.061Z,22.68
2017-07-28T05:36:00.700Z,22.69
2017-07-28T05:37:01.337Z,22.68
2017-07-28T05:38:01.977Z,22.70
2017-07-28T05:39:02.615Z,22.73
2017-07-28T05:40:03.196Z,22.66
2017-07-28T05:41:03.835Z,22.66
2017-07-28T05:42:04.720Z,22.66
2017-07-28T05:43:05.354Z,22.63
2017-07-28T05:44:05.997Z,22.65
2017-07-28T05:45:06.638Z,22.63
2017-07-28T05:46:07.265Z,22.65
2017-07-28T05:47:07.907Z,22.62
2017-07-28T05:48:08.551Z,22.65
2017-07-28T05:49:09.180Z,22.57
2017-07-28T05:50:10.123Z,22.57
2017-07-28T05:51:10.758Z,22.62
2017-07-28T05:52:11.399Z,22.59
2017-07-28T05:53:12.030Z,22.60
2017-07-28T05:54:12.666Z,22.55
2017-07-28T05:55:13.306Z,22.62
2017-07-28T05:56:13.945Z,22.59
2017-07-28T05:57:14.581Z,22.62
2017-07-28T05:58:15.520Z,22.62
2017-07-28T05:59:16.158Z,22.59
2017-07-28T06:00:16.793Z,22.59
2017-07-28T06:01:17.430Z,22.50
2017-07-28T06:02:18.064Z,22.55
2017-07-28T06:03:18.700Z,22.54
2017-07-28T06:04:19.336Z,22.53
2017-07-28T06:05:19.970Z,22.51
2017-07-28T06:06:20.806Z,22.51
2017-07-28T06:07:21.446Z,22.47
2017-07-28T06:08:22.078Z,22.53
2017-07-28T06:09:22.717Z,22.51
2017-07-28T06:10:23.357Z,22.51
2017-07-28T06:11:24.000Z,22.48
2017-07-28T06:12:24.627Z,22.48
2017-07-28T06:13:25.262Z,22.54
2017-07-28T06:14:25.905Z,22.48
2017-07-28T06:15:26.735Z,22.53
2017-07-28T06:16:27.374Z,22.50
2017-07-28T06:17:28.010Z,22.43
2017-07-28T06:18:28.647Z,22.45
2017-07-28T06:19:29.286Z,22.48
2017-07-28T06:20:29.920Z,22.50
2017-07-28T06:21:30.561Z,22.48
2017-07-28T06:22:31.193Z,22.47
2017-07-28T06:23:31.976Z,22.50
2017-07-28T06:24:32.614Z,22.47
2017-07-28T06:25:33.247Z,22.54
2017-07-28T06:26:33.885Z,22.55
2017-07-28T06:27:34.519Z,22.45
2017-07-28T06:28:35.156Z,22.41
2017-07-28T06:29:35.798Z,22.36
2017-07-28T06:30:36.430Z,22.41
2017-07-28T06:31:37.271Z,22.44
2017-07-28T06:32:37.911Z,22.48
2017-07-28T06:33:38.551Z,22.50
2017-07-28T06:34:39.186Z,22.41
2017-07-28T06:35:39.824Z,22.44
2017-07-28T06:36:40.468Z,22.41
2017-07-28T06:37:41.107Z,22.39
2017-07-28T06:38:41.742Z,22.36
2017-07-28T06:39:42.628Z,22.39
2017-07-28T06:40:43.263Z,22.39
2017-07-28T06:41:43.897Z,22.39
2017-07-28T06:42:44.533Z,22.36
2017-07-28T06:43:45.168Z,22.45
2017-07-28T06:44:45.805Z,22.36
2017-07-28T06:45:46.439Z,22.38
2017-07-28T06:46:47.074Z,22.38
2017-07-28T06:47:47.712Z,22.39
2017-07-28T06:48:48.551Z,22.45
2017-07-28T06:49:49.183Z,22.55
2017-07-28T06:50:49.818Z,22.53
2017-07-28T06:51:50.461Z,22.43
2017-07-28T06:52:51.149Z,22.53
2017-07-28T06:53:51.780Z,22.47
2017-07-28T06:54:52.428Z,22.45
2017-07-28T06:55:53.070Z,22.48
2017-07-28T06:56:53.857Z,22.45
2017-07-28T06:57:54.490Z,22.44
2017-07-28T06:58:55.126Z,22.41
2017-07-28T06:59:55.759Z,22.41
2017-07-28T07:00:56.406Z,22.39
2017-07-28T07:01:57.046Z,22.43
2017-07-28T07:02:57.675Z,22.41
2017-07-28T07:03:58.315Z,22.43
2017-07-28T07:04:59.150Z,22.47
2017-07-28T07:05:59.787Z,22.38
2017-07-28T07:07:00.422Z,22.44
2017-07-28T07:08:01.058Z,22.36
2017-07-28T07:09:01.694Z,22.36
2017-07-28T07:10:02.336Z,22.41
2017-07-28T07:11:02.970Z,22.38
2017-07-28T07:12:03.605Z,22.41
2017-07-28T07:13:04.546Z,22.43
2017-07-28T07:14:05.191Z,22.41
2017-07-28T07:15:05.823Z,22.43
2017-07-28T07:16:06.461Z,22.45
2017-07-28T07:17:07.092Z,22.41
2017-07-28T07:18:07.733Z,22.51
2017-07-28T07:19:08.370Z,22.44
2017-07-28T07:20:09.000Z,22.45
2017-07-28T07:21:10.093Z,22.55
2017-07-28T07:22:10.723Z,22.38
2017-07-28T07:23:11.360Z,22.44
2017-07-28T07:24:11.999Z,22.45
2017-07-28T07:25:12.634Z,22.45
2017-07-28T07:26:13.268Z,22.51
2017-07-28T07:27:13.904Z,22.44
2017-07-28T07:28:14.542Z,22.36
2017-07-28T07:29:15.233Z,22.41
2017-07-28T07:30:16.067Z,22.41
2017-07-28T07:31:16.701Z,22.44
2017-07-28T07:32:17.337Z,22.44
2017-07-28T07:33:17.971Z,22.45
2017-07-28T07:34:18.607Z,22.51
2017-07-28T07:35:19.244Z,22.51
2017-07-28T07:36:19.884Z,22.50
2017-07-28T07:37:20.521Z,22.51
2017-07-28T07:38:21.310Z,22.51
2017-07-28T07:39:21.948Z,22.51
2017-07-28T07:40:22.580Z,22.48
2017-07-28T07:41:23.215Z,22.47
2017-07-28T07:42:23.856Z,22.48
2017-07-28T07:43:24.488Z,22.50
2017-07-28T07:44:25.124Z,22.53
2017-07-28T07:45:25.764Z,22.57
2017-07-28T07:46:26.695Z,22.53
2017-07-28T07:47:27.336Z,22.51
2017-07-28T07:48:27.973Z,22.59
2017-07-28T07:49:28.611Z,22.59
2017-07-28T07:50:29.248Z,22.65
2017-07-28T07:51:29.883Z,22.48
2017-07-28T07:52:30.527Z,22.62
2017-07-28T07:53:31.157Z,22.59
2017-07-28T07:54:31.948Z,22.66
2017-07-28T07:55:32.580Z,22.63
2017-07-28T07:56:33.220Z,22.62
2017-07-28T07:57:33.853Z,22.63
2017-07-28T07:58:34.488Z,22.68
2017-07-28T07:59:35.124Z,22.62
2017-07-28T08:00:35.762Z,22.60
2017-07-28T08:01:36.402Z,22.63
2017-07-28T08:02:37.034Z,22.62
2017-07-28T08:03:37.925Z,22.57
2017-07-28T08:04:38.560Z,22.57
2017-07-28T08:05:39.194Z,22.68
2017-07-28T08:06:39.839Z,22.59
2017-07-28T08:07:40.470Z,22.69
2017-07-28T08:08:41.108Z,22.62
2017-07-28T08:09:41.751Z,22.73
2017-07-28T08:10:42.438Z,22.65
2017-07-28T08:11:43.226Z,22.65
2017-07-28T08:12:43.869Z,22.60
2017-07-28T08:13:44.509Z,22.68
2017-07-28T08:14:45.140Z,22.68
2017-07-28T08:15:45.775Z,22.69
2017-07-28T08:16:46.410Z,22.72
2017-07-28T08:17:47.051Z,22.68
2017-07-28T08:18:47.683Z,22.70
2017-07-28T08:19:48.519Z,22.72
2017-07-28T08:20:49.155Z,22.76
2017-07-28T08:21:49.793Z,22.70
2017-07-28T08:22:50.435Z,22.76
2017-07-28T08:23:51.120Z,22.70
2017-07-28T08:24:51.755Z,22.70
2017-07-28T08:25:52.390Z,22.62
2017-07-28T08:26:53.028Z,22.76
2017-07-28T08:27:53.819Z,22.72
2017-07-28T08:28:54.453Z,22.75
2017-07-28T08:29:55.091Z,22.73
2017-07-28T08:30:55.729Z,22.72
2017-07-28T08:31:56.369Z,22.69
2017-07-28T08:32:57.064Z,22.81
2017-07-28T08:33:57.696Z,22.84
2017-07-28T08:34:58.345Z,22.76
2017-07-28T08:35:59.275Z,22.76
2017-07-28T08:36:59.914Z,22.76
2017-07-28T08:38:00.557Z,22.68
2017-07-28T08:39:01.194Z,22.81
2017-07-28T08:40:01.840Z,22.72
2017-07-28T08:41:02.470Z,22.69
2017-07-28T08:42:03.108Z,22.73
2017-07-28T08:43:03.749Z,22.78
2017-07-28T08:44:04.385Z,22.75
2017-07-28T08:45:05.272Z,22.69
2017-07-28T08:46:05.914Z,22.76
2017-07-28T08:47:06.554Z,22.75
2017-07-28T08:48:07.189Z,22.78
2017-07-28T08:49:07.824Z,22.73
2017-07-28T08:50:08.489Z,22.70
2017-07-28T08:51:09.104Z,22.73
2017-07-28T08:52:09.745Z,22.72
2017-07-28T08:53:10.542Z,22.70
2017-07-28T08:54:11.172Z,22.80
2017-07-28T08:55:11.809Z,22.69
2017-07-28T08:56:12.443Z,22.76
2017-07-28T08:57:13.105Z,22.76
2017-07-28T08:58:13.719Z,22.76
2017-07-28T08:59:14.358Z,22.76
2017-07-28T09:00:14.992Z,22.75
2017-07-28T09:01:15.829Z,22.76
2017-07-28T09:02:16.469Z,22.76
2017-07-28T09:03:17.105Z,22.83
2017-07-28T09:04:17.747Z,22.80
2017-07-28T09:05:18.380Z,22.72
2017-07-28T09:06:19.026Z,22.76
2017-07-28T09:07:19.656Z,22.76
2017-07-28T09:08:20.290Z,22.73
2017-07-28T09:09:21.083Z,22.83
2017-07-28T09:10:21.723Z,22.78
2017-07-28T09:11:22.358Z,22.76
2017-07-28T09:12:22.993Z,22.80
2017-07-28T09:13:23.636Z,22.81
2017-07-28T09:14:24.275Z,22.84
2017-07-28T09:15:24.917Z,22.83
2017-07-28T09:16:25.547Z,22.81
2017-07-28T09:17:26.196Z,22.83
2017-07-28T09:18:27.037Z,22.87
2017-07-28T09:19:27.668Z,22.85
2017-07-28T09:20:28.305Z,22.88
2017-07-28T09:21:28.944Z,22.90
2017-07-28T09:22:29.578Z,22.87
2017-07-28T09:23:30.220Z,22.87
2017-07-28T09:24:30.855Z,22.87
2017-07-28T09:25:31.490Z,22.94
2017-07-28T09:26:32.334Z,22.93
2017-07-28T09:27:32.969Z,22.93
2017-07-28T09:28:33.611Z,22.99
2017-07-28T09:29:34.243Z,22.96
2017-07-28T09:30:34.879Z,22.99
2017-07-28T09:31:35.515Z,23.00
2017-07-28T09:32:36.156Z,23.00
2017-07-28T09:33:36.796Z,22.98
2017-07-28T09:34:37.627Z,22.98
2017-07-28T09:35:38.275Z,23.05
2017-07-28T09:36:38.869Z,23.09
2017-07-28T09:37:39.506Z,23.06
2017-07-28T09:38:40.137Z,23.03
2017-07-28T09:39:40.778Z,23.08
2017-07-28T09:40:41.414Z,22.98
2017-07-28T09:41:42.050Z,23.05
2017-07-28T09:42:42.844Z,23.12
2017-07-28T09:43:43.482Z,23.02
2017-07-28T09:44:44.129Z,23.00
2017-07-28T09:45:44.761Z,23.03
2017-07-28T09:46:45.397Z,23.03
2017-07-28T09:47:46.035Z,22.99
2017-07-28T09:48:46.672Z,23.09
2017-07-28T09:49:47.310Z,22.98
2017-07-28T09:50:48.146Z,23.08
2017-07-28T09:51:48.792Z,23.13
2017-07-28T09:52:49.479Z,23.12
2017-07-28T09:53:50.117Z,23.17
2017-07-28T09:54:50.756Z,23.15
2017-07-28T09:55:51.396Z,23.17
2017-07-28T09:56:52.035Z,23.08
2017-07-28T09:57:52.681Z,23.23
2017-07-28T09:58:53.311Z,23.12
2017-07-28T09:59:54.146Z,23.15
2017-07-28T10:00:54.946Z,23.21
2017-07-28T10:01:55.583Z,23.20
2017-07-28T10:02:56.227Z,23.18
2017-07-28T10:03:56.862Z,23.17
2017-07-28T10:04:57.495Z,23.17
2017-07-28T10:05:58.134Z,23.15
2017-07-28T10:06:58.769Z,23.20
2017-07-28T10:07:59.413Z,23.21
2017-07-28T10:09:00.249Z,23.20
2017-07-28T10:10:00.890Z,23.20
2017-07-28T10:11:01.532Z,23.20
2017-07-28T10:12:02.168Z,23.25
2017-07-28T10:13:02.803Z,23.27
2017-07-28T10:14:03.442Z,23.23
2017-07-28T10:15:04.081Z,23.31
2017-07-28T10:16:04.724Z,23.27
2017-07-28T10:17:05.363Z,23.25
2017-07-28T10:18:06.153Z,23.23
2017-07-28T10:19:06.792Z,23.21
2017-07-28T10:20:07.430Z,23.27
2017-07-28T10:21:08.071Z,23.24
2017-07-28T10:22:08.716Z,23.21
2017-07-28T10:23:09.348Z,23.32
2017-07-28T10:24:09.991Z,23.36
2017-07-28T10:25:10.624Z,23.37
2017-07-28T10:26:11.460Z,23.28
2017-07-28T10:27:12.098Z,23.32
2017-07-28T10:28:12.734Z,23.31
2017-07-28T10:29:13.371Z,23.40
2017-07-28T10:30:14.010Z,23.37
2017-07-28T10:31:14.651Z,23.41
2017-07-28T10:32:15.285Z,23.40
2017-07-28T10:33:15.922Z,23.41
2017-07-28T10:34:16.711Z,23.40
2017-07-28T10:35:17.344Z,23.41
2017-07-28T10:36:17.982Z,23.37
2017-07-28T10:37:18.625Z,23.40
2017-07-28T10:38:19.263Z,23.39
2017-07-28T10:39:19.916Z,23.43
2017-07-28T10:40:20.596Z,23.48
2017-07-28T10:41:21.239Z,23.44
2017-07-28T10:42:22.081Z,23.43
2017-07-28T10:43:22.721Z,23.48
2017-07-28T10:44:23.353Z,23.48
2017-07-28T10:45:23.990Z,23.46
2017-07-28T10:46:24.627Z,23.55
2017-07-28T10:47:25.270Z,23.51
2017-07-28T10:48:25.915Z,23.46
2017-07-28T10:49:26.554Z,23.46
2017-07-28T10:50:27.194Z,23.43
2017-07-28T10:51:27.978Z,23.47
2017-07-28T10:52:28.618Z,23.51
2017-07-28T10:53:29.259Z,23.54
2017-07-28T10:54:29.898Z,23.50
2017-07-28T10:55:30.532Z,23.46
2017-07-28T10:56:31.176Z,23.51
2017-07-28T10:57:31.810Z,23.47
2017-07-28T10:58:32.446Z,23.54
2017-07-28T10:59:33.230Z,23.50
2017-07-28T11:00:33.875Z,23.55
2017-07-28T11:01:34.514Z,23.54
2017-07-28T11:02:35.161Z,23.47
2017-07-28T11:03:35.800Z,23.55
2017-07-28T11:04:36.433Z,23.54
2017-07-28T11:05:37.075Z,23.54
2017-07-28T11:06:37.735Z,23.61
2017-07-28T11:07:38.552Z,23.55
2017-07-28T11:08:39.189Z,23.58
2017-07-28T11:09:39.825Z,23.58
2017-07-28T11:10:40.470Z,23.51
2017-07-28T11:11:41.104Z,23.58
2017-07-28T11:12:41.741Z,23.54
2017-07-28T11:13:42.376Z,23.59
2017-07-28T11:14:43.016Z,23.58
2017-07-28T11:15:43.805Z,23.63
2017-07-28T11:16:44.447Z,23.62
2017-07-28T11:17:45.078Z,23.58
2017-07-28T11:18:45.715Z,23.59
2017-07-28T11:19:46.358Z,23.56
2017-07-28T11:20:46.948Z,23.54
2017-07-28T11:21:47.587Z,23.59
2017-07-28T11:22:48.224Z,23.61
2017-07-28T11:23:48.866Z,23.55
2017-07-28T11:24:49.657Z,23.55
2017-07-28T11:25:50.296Z,23.56
2017-07-28T11:26:50.929Z,23.63
2017-07-28T11:27:51.571Z,23.55
2017-07-28T11:28:52.209Z,23.54
2017-07-28T11:29:52.847Z,23.54
2017-07-28T11:30:53.481Z,23.51
2017-07-28T11:31:54.118Z,23.59
2017-07-28T11:32:54.907Z,23.62
2017-07-28T11:33:55.550Z,23.63
2017-07-28T11:34:56.183Z,23.61
2017-07-28T11:35:56.818Z,23.59
2017-07-28T11:36:57.459Z,23.61
2017-07-28T11:37:58.096Z,23.63
2017-07-28T11:38:58.790Z,23.63
2017-07-28T11:39:59.422Z,23.62
2017-07-28T11:41:00.308Z,23.58
2017-07-28T11:42:00.951Z,23.63
2017-07-28T11:43:01.596Z,23.63
2017-07-28T11:44:02.241Z,23.62
2017-07-28T11:45:02.932Z,23.56
2017-07-28T11:46:03.572Z,23.68
2017-07-28T11:47:04.219Z,23.63
2017-07-28T11:48:04.857Z,23.59
2017-07-28T11:49:05.642Z,23.65
2017-07-28T11:50:06.286Z,23.63
2017-07-28T11:51:06.923Z,23.63
2017-07-28T11:52:07.563Z,23.59
2017-07-28T11:53:08.203Z,23.58
2017-07-28T11:54:08.838Z,23.61
2017-07-28T11:55:09.483Z,23.62
2017-07-28T11:56:10.070Z,23.61
2017-07-28T11:57:10.859Z,23.65
2017-07-28T11:58:11.495Z,23.66
2017-07-28T11:59:12.146Z,23.69
2017-07-28T12:00:12.731Z,23.66
2017-07-28T12:01:13.369Z,23.68
2017-07-28T12:02:14.008Z,23.71
2017-07-28T12:03:14.643Z,23.74
2017-07-28T12:04:15.283Z,23.74
2017-07-28T12:05:15.919Z,23.68
2017-07-28T12:06:16.756Z,23.68
2017-07-28T12:07:17.395Z,23.74
2017-07-28T12:08:18.033Z,23.71
2017-07-28T12:09:18.669Z,23.71
2017-07-28T12:10:19.309Z,23.68
2017-07-28T12:11:19.946Z,23.73
2017-07-28T12:12:20.584Z,23.69
2017-07-28T12:13:21.219Z,23.66
2017-07-28T12:14:22.012Z,23.69
2017-07-28T12:15:22.646Z,23.71
2017-07-28T12:16:23.285Z,23.73
2017-07-28T12:17:23.929Z,23.74
2017-07-28T12:18:24.571Z,23.68
2017-07-28T12:19:25.208Z,23.71
2017-07-28T12:20:25.843Z,23.73
2017-07-28T12:21:26.484Z,23.73
2017-07-28T12:22:27.219Z,23.68
2017-07-28T12:23:27.857Z,23.74
2017-07-28T12:24:28.507Z,23.69
2017-07-28T12:25:29.142Z,23.74
2017-07-28T12:26:29.788Z,23.76
2017-07-28T12:27:30.424Z,23.76
2017-07-28T12:28:31.067Z,23.65
2017-07-28T12:29:31.703Z,23.77
2017-07-28T12:30:32.550Z,23.77
2017-07-28T12:31:33.182Z,23.78
2017-07-28T12:32:33.821Z,23.73
2017-07-28T12:33:34.458Z,23.76
2017-07-28T12:34:35.046Z,23.78
2017-07-28T12:35:35.686Z,23.69
2017-07-28T12:36:36.333Z,23.78
2017-07-28T12:37:36.964Z,23.80
2017-07-28T12:38:37.607Z,23.80
2017-07-28T12:39:38.447Z,23.81
2017-07-28T12:40:39.084Z,23.84
2017-07-28T12:41:39.718Z,23.76
2017-07-28T12:42:40.357Z,23.80
2017-07-28T12:43:41.002Z,23.92
2017-07-28T12:44:41.637Z,23.86
2017-07-28T12:45:42.275Z,23.86
2017-07-28T12:46:42.913Z,23.84
2017-07-28T12:47:44.004Z,23.84
2017-07-28T12:48:44.644Z,23.87
2017-07-28T12:49:45.282Z,23.87
2017-07-28T12:50:45.923Z,23.83
2017-07-28T12:51:46.561Z,23.88
2017-07-28T12:52:47.254Z,23.87
2017-07-28T12:53:47.895Z,23.88
2017-07-28T12:54:48.528Z,23.92
2017-07-28T12:55:49.568Z,23.93
2017-07-28T12:56:50.207Z,23.91
2017-07-28T12:57:50.850Z,23.95
2017-07-28T12:58:51.486Z,23.88
2017-07-28T12:59:52.129Z,23.92
2017-07-28T13:00:52.767Z,23.92